Edith Kirk — 2DST9 — position and weather

sailwx.info

Track history (hours):
 
Tides and Currents Weather Stations Pressure Air Temp Water Temp Dewpoint Dewpoint Depression Visibility Wind Speed Wind Dir Waves Ship Positions

Edith Kirk

Last reported at 2017-Jul-28 13:00 UTC. Time now 2017-Jul-28 13:01 UTC.
Position N 51°27' E 002°37'.

Length 183 m; draft 7.2 m.

Type: Ship. MMSI: 235081745.

Date/timePositionNaut miles runAvg speedWind from/ knotsBaromVisibWave heightAir tempDewpointWater temp
2017-Jul-28 13:00N 51°27' E 002°37'0 0.2
2017-Jul-28 12:30N 51°27' E 002°37'0 0.1
2017-Jul-28 12:00N 51°26' E 002°36'0 0.0
2017-Jul-28 11:30N 51°26' E 002°36'0 0.1
2017-Jul-28 10:57N 51°26' E 002°37'0 0.0
2017-Jul-28 10:30N 51°26' E 002°37'0 0.2
2017-Jul-28 10:00N 51°27' E 002°37'0 0.1
2017-Jul-28 09:30N 51°27' E 002°37'0 0.1
2017-Jul-28 09:00N 51°27' E 002°37'0 0.1
2017-Jul-28 08:30N 51°27' E 002°37'0 0.0
2017-Jul-28 08:00N 51°27' E 002°37'0 0.0
2017-Jul-28 07:30N 51°27' E 002°37'0 0.0
2017-Jul-28 07:00N 51°27' E 002°37'0 0.0
2017-Jul-28 06:30N 51°27' E 002°37'0 0.0
2017-Jul-28 06:00N 51°27' E 002°37'0 0.0
2017-Jul-28 05:30N 51°27' E 002°37'0 0.0
2017-Jul-28 05:00N 51°27' E 002°37'0 0.0
2017-Jul-28 04:30N 51°27' E 002°37'0 0.0
2017-Jul-28 03:57N 51°27' E 002°37'0 0.0
2017-Jul-28 03:30N 51°27' E 002°37'0 0.0
2017-Jul-28 03:00N 51°27' E 002°37'0 0.0
2017-Jul-28 02:30N 51°27' E 002°37'0 0.1
2017-Jul-28 02:00N 51°27' E 002°37'0 0.0
2017-Jul-28 01:30N 51°27' E 002°37'0 0.0
2017-Jul-28 00:54N 51°27' E 002°37'0 0.1
2017-Jul-28 00:30N 51°27' E 002°37'0 0.1
2017-Jul-28 00:00N 51°26' E 002°37'0 0.0
2017-Jul-27 23:30N 51°26' E 002°37'0 0.0
2017-Jul-27 23:00N 51°27' E 002°37'0 0.0
2017-Jul-27 22:30N 51°27' E 002°37'0 0.1
2017-Jul-27 22:00N 51°26' E 002°37'0 0.1
2017-Jul-27 21:30N 51°27' E 002°37'0 0.1
2017-Jul-27 21:00N 51°27' E 002°37'0 0.0
2017-Jul-27 20:30N 51°27' E 002°37'0 0.0
2017-Jul-27 20:00N 51°27' E 002°37'0 0.0
2017-Jul-27 19:30N 51°27' E 002°37'0 0.0
2017-Jul-27 19:00N 51°27' E 002°37'0 0.0
2017-Jul-27 18:30N 51°27' E 002°37'0 0.0
2017-Jul-27 18:00N 51°27' E 002°37'0 0.3
2017-Jul-27 17:31N 51°27' E 002°37'1 1.5
2017-Jul-27 17:01N 51°27' E 002°35'3 6.2
2017-Jul-27 16:31N 51°24' E 002°33'5 9.0
2017-Jul-27 16:01N 51°21' E 002°27'611.0
2017-Jul-27 15:31N 51°19' E 002°19'612.2
2017-Jul-27 15:00N 51°19' E 002°09'9 9.4
2017-Jul-27 14:01N 51°25' E 001°57'510.1
2017-Jul-27 13:31N 51°29' E 002°01'5 9.5
2017-Jul-27 13:01N 51°33' E 002°06'510.1
2017-Jul-27 12:30N 51°36' E 002°12'9 9.9
2017-Jul-27 11:35N 51°43' E 002°22'11711.9
2017-Jul-27 01:45N 53°31' E 003°34'312.0
2017-Jul-27 01:30N 53°34' E 003°36'137 8.5
2017-Jul-26 09:24N 55°25' E 005°55'3 6.6
2017-Jul-26 08:57N 55°27' E 005°57'1 1.3
2017-Jul-26 08:11N 55°28' E 005°58'1 3.0
2017-Jul-26 07:42N 55°29' E 005°59'1 2.2
2017-Jul-26 07:25N 55°30' E 005°60'2 4.2
2017-Jul-26 06:59N 55°31' E 006°01'1 2.9
2017-Jul-26 06:29N 55°33' E 006°03'5 9.7
2017-Jul-26 05:59N 55°37' E 006°06'612.3
2017-Jul-26 05:30N 55°42' E 006°11'612.3
2017-Jul-26 05:00N 55°48' E 006°15'612.2
2017-Jul-26 04:29N 55°54' E 006°20'612.2
2017-Jul-26 03:59N 55°59' E 006°25'1012.3
2017-Jul-26 03:11N 56°08' E 006°32'12210.9
2017-Jul-25 15:58N 57°40' E 008°58'1511.3
2017-Jul-25 14:40N 57°43' E 009°25'811.8
2017-Jul-25 14:00N 57°44' E 009°40'611.9
2017-Jul-25 13:29N 57°45' E 009°51'611.8
2017-Jul-25 13:00N 57°46' E 010°02'611.8
2017-Jul-25 12:30N 57°47' E 010°13'611.9
2017-Jul-25 11:59N 57°48' E 010°24'611.8
2017-Jul-25 11:28N 57°49' E 010°35'511.2
2017-Jul-25 11:00N 57°49' E 010°45'611.4
2017-Jul-25 10:30N 57°44' E 010°49'711.7
2017-Jul-25 09:57N 57°38' E 010°42'1 0.7
2017-Jul-25 08:50N 57°38' E 010°41'0 0.0
2017-Jul-25 07:56N 57°38' E 010°41'0 0.0
2017-Jul-25 07:29N 57°38' E 010°41'0 0.0
2017-Jul-25 06:08N 57°38' E 010°41'0 0.0
2017-Jul-25 04:26N 57°38' E 010°41'0 0.0
2017-Jul-25 03:44N 57°38' E 010°41'0 0.0
2017-Jul-25 03:23N 57°38' E 010°41'0 0.0
2017-Jul-25 02:32N 57°38' E 010°41'0 0.0
2017-Jul-25 02:17N 57°38' E 010°41'0 0.0
2017-Jul-25 01:47N 57°38' E 010°41'0 0.0
2017-Jul-25 01:17N 57°38' E 010°41'0 0.0
2017-Jul-25 00:59N 57°38' E 010°41'0 0.0
2017-Jul-25 00:20N 57°38' E 010°41'0 0.0
2017-Jul-24 23:50N 57°38' E 010°41'0 0.0
2017-Jul-24 23:23N 57°38' E 010°41'0 0.0
2017-Jul-24 21:05N 57°38' E 010°41'0 0.1
2017-Jul-24 20:56N 57°38' E 010°41'0 0.1
2017-Jul-24 20:08N 57°38' E 010°41'0 0.0
2017-Jul-24 19:38N 57°38' E 010°41'0 0.0
2017-Jul-24 17:26N 57°38' E 010°41'0 0.0
2017-Jul-24 16:44N 57°38' E 010°41'0 0.1
2017-Jul-24 16:17N 57°38' E 010°41'0 0.0
2017-Jul-24 12:47N 57°38' E 010°41'0 0.0
2017-Jul-24 12:29N 57°38' E 010°41'0 0.0
2017-Jul-24 11:59N 57°38' E 010°41'0 0.0
2017-Jul-24 10:47N 57°38' E 010°41'0 0.0
2017-Jul-24 10:17N 57°38' E 010°41'0 0.0
2017-Jul-24 09:29N 57°38' E 010°41'0 0.0
2017-Jul-24 08:59N 57°38' E 010°41'0 0.0
2017-Jul-24 08:23N 57°38' E 010°41'0 0.0
2017-Jul-24 07:32N 57°38' E 010°41'0 0.0
2017-Jul-24 07:08N 57°38' E 010°41'0 0.0
2017-Jul-24 06:35N 57°38' E 010°41'0 0.0
2017-Jul-24 05:50N 57°38' E 010°41'0 0.0
2017-Jul-24 05:29N 57°38' E 010°41'0 0.0
2017-Jul-24 04:53N 57°38' E 010°41'0 0.0
2017-Jul-24 04:29N 57°38' E 010°41'0 0.0
2017-Jul-24 03:56N 57°38' E 010°41'0 0.0
2017-Jul-24 03:23N 57°38' E 010°41'0 0.0
2017-Jul-24 02:53N 57°38' E 010°41'0 0.0
2017-Jul-24 02:20N 57°38' E 010°41'0 0.0
2017-Jul-24 01:50N 57°38' E 010°41'0 0.0
2017-Jul-24 01:26N 57°38' E 010°41'0 0.0
2017-Jul-24 00:50N 57°38' E 010°41'0 0.0
2017-Jul-24 00:26N 57°38' E 010°41'0 0.0
2017-Jul-23 23:50N 57°38' E 010°41'0 0.0
2017-Jul-23 23:11N 57°38' E 010°41'0 0.0
2017-Jul-23 22:56N 57°38' E 010°41'0 0.0
2017-Jul-23 22:29N 57°38' E 010°41'0 0.0
2017-Jul-23 21:56N 57°38' E 010°41'0 0.0
2017-Jul-23 21:14N 57°38' E 010°41'0 0.0
2017-Jul-23 20:59N 57°38' E 010°41'0 0.0
2017-Jul-23 20:29N 57°38' E 010°41'0 0.0
2017-Jul-23 19:59N 57°38' E 010°41'0 0.0
2017-Jul-23 19:29N 57°38' E 010°41'0 0.0
2017-Jul-23 18:59N 57°38' E 010°41'0 0.0
2017-Jul-23 18:29N 57°38' E 010°41'0 0.0
2017-Jul-23 17:59N 57°38' E 010°41'0 0.0
2017-Jul-23 17:29N 57°38' E 010°41'0 0.0
2017-Jul-23 16:50N 57°38' E 010°41'0 0.0
2017-Jul-23 16:29N 57°38' E 010°41'0 0.0
2017-Jul-23 15:56N 57°38' E 010°41'0 0.0
2017-Jul-23 15:02N 57°38' E 010°41'0 0.0
2017-Jul-23 14:59N 57°38' E 010°41'0 0.0
2017-Jul-23 14:26N 57°38' E 010°41'0 0.0
2017-Jul-23 13:47N 57°38' E 010°41'0 0.0
2017-Jul-23 13:29N 57°38' E 010°41'0 0.0
2017-Jul-23 12:23N 57°38' E 010°41'0 0.0
2017-Jul-23 11:26N 57°38' E 010°41'0 0.0
2017-Jul-23 10:47N 57°38' E 010°41'0 0.0
2017-Jul-23 09:26N 57°38' E 010°41'0 0.0
2017-Jul-23 08:56N 57°38' E 010°41'0 0.0
2017-Jul-23 08:14N 57°38' E 010°41'0 0.0
2017-Jul-23 07:53N 57°38' E 010°41'0 0.0
2017-Jul-23 07:29N 57°38' E 010°41'0 0.0
2017-Jul-23 06:50N 57°38' E 010°41'0 0.0
2017-Jul-23 06:29N 57°38' E 010°41'0 0.0
2017-Jul-23 05:59N 57°38' E 010°41'0 0.0
2017-Jul-23 05:29N 57°38' E 010°41'0 0.0
2017-Jul-23 04:56N 57°38' E 010°41'0 0.0
2017-Jul-23 04:29N 57°38' E 010°41'0 0.0
2017-Jul-23 03:59N 57°38' E 010°41'0 0.0
2017-Jul-23 03:29N 57°38' E 010°41'0 0.0
2017-Jul-23 02:59N 57°38' E 010°41'0 0.0
2017-Jul-23 02:29N 57°38' E 010°41'0 0.0
2017-Jul-23 01:59N 57°38' E 010°41'0 0.0
2017-Jul-23 01:23N 57°38' E 010°41'0 0.0
2017-Jul-23 00:56N 57°38' E 010°41'0 0.0
2017-Jul-23 00:26N 57°38' E 010°41'0 0.0
2017-Jul-22 23:59N 57°38' E 010°41'0 0.0
2017-Jul-22 23:26N 57°38' E 010°41'0 0.0
2017-Jul-22 19:56N 57°38' E 010°41'0 0.0
2017-Jul-22 19:17N 57°38' E 010°41'0 0.0
2017-Jul-22 18:53N 57°38' E 010°41'0 0.0
2017-Jul-22 17:56N 57°38' E 010°41'0 0.1
2017-Jul-22 17:26N 57°38' E 010°41'0 0.1
2017-Jul-22 16:56N 57°38' E 010°41'0 0.1
2017-Jul-22 16:26N 57°38' E 010°41'0 0.0
2017-Jul-22 15:59N 57°38' E 010°41'0 0.0
2017-Jul-22 13:56N 57°38' E 010°41'0 0.0
2017-Jul-22 13:26N 57°38' E 010°41'0 0.0
2017-Jul-22 12:59N 57°38' E 010°41'0 0.0
2017-Jul-22 12:20N 57°38' E 010°41'0 0.0
2017-Jul-22 11:59N 57°38' E 010°41'0 0.0
2017-Jul-22 11:23N 57°38' E 010°41'0 0.0
2017-Jul-22 10:47N 57°38' E 010°41'0 0.0
2017-Jul-22 09:35N 57°38' E 010°41'0 0.0
2017-Jul-22 09:14N 57°38' E 010°41'0 0.0
2017-Jul-22 08:50N 57°38' E 010°41'0 0.0
2017-Jul-22 08:23N 57°38' E 010°41'0 0.0
2017-Jul-22 07:47N 57°38' E 010°41'0 0.0
2017-Jul-22 07:29N 57°38' E 010°41'0 0.0
2017-Jul-22 06:59N 57°38' E 010°41'0 0.0
2017-Jul-22 06:26N 57°38' E 010°41'0 0.0
2017-Jul-22 05:44N 57°38' E 010°41'0 0.0
2017-Jul-22 05:26N 57°38' E 010°41'0 0.0
2017-Jul-22 04:59N 57°38' E 010°41'0 0.0
2017-Jul-22 04:26N 57°38' E 010°41'0 0.0
2017-Jul-22 03:50N 57°38' E 010°41'0 0.0
2017-Jul-22 03:29N 57°38' E 010°41'0 0.0
2017-Jul-22 02:53N 57°38' E 010°41'0 0.0
2017-Jul-22 02:26N 57°38' E 010°41'0 0.0
2017-Jul-22 01:59N 57°38' E 010°41'0 0.0
2017-Jul-22 01:26N 57°38' E 010°41'0 0.0
2017-Jul-22 00:59N 57°38' E 010°41'0 0.0
2017-Jul-22 00:23N 57°38' E 010°41'0 0.0
2017-Jul-21 23:56N 57°38' E 010°41'0 0.0
2017-Jul-21 22:50N 57°38' E 010°41'0 0.0
2017-Jul-21 22:17N 57°38' E 010°41'0 0.0
2017-Jul-21 21:32N 57°38' E 010°41'0 0.0
2017-Jul-21 21:29N 57°38' E 010°41'0 0.0
2017-Jul-21 19:56N 57°38' E 010°41'0 0.0
2017-Jul-21 19:23N 57°38' E 010°41'0 0.0
2017-Jul-21 18:59N 57°38' E 010°41'0 0.0
2017-Jul-21 18:29N 57°38' E 010°41'0 0.0
2017-Jul-21 17:50N 57°38' E 010°41'0 0.0
2017-Jul-21 17:23N 57°38' E 010°41'0 0.0
2017-Jul-21 16:53N 57°38' E 010°41'0 0.0
2017-Jul-21 16:23N 57°38' E 010°41'0 0.0
2017-Jul-21 15:59N 57°38' E 010°41'0 0.0
2017-Jul-21 15:23N 57°38' E 010°41'0 0.0
2017-Jul-21 14:59N 57°38' E 010°41'0 0.0
2017-Jul-21 14:11N 57°38' E 010°41'0 0.0
2017-Jul-21 13:53N 57°38' E 010°41'0 0.0
2017-Jul-21 13:20N 57°38' E 010°41'0 0.0
2017-Jul-21 12:56N 57°38' E 010°41'0 0.0
2017-Jul-21 12:26N 57°38' E 010°41'0 0.0
2017-Jul-21 11:59N 57°38' E 010°41'0 0.0
2017-Jul-21 11:17N 57°38' E 010°41'0 0.1
2017-Jul-21 10:56N 57°38' E 010°41'0 0.1
2017-Jul-21 10:23N 57°38' E 010°41'0 0.1
2017-Jul-21 09:59N 57°38' E 010°41'0 0.0
2017-Jul-21 09:26N 57°38' E 010°41'0 0.0
2017-Jul-21 08:50N 57°38' E 010°41'0 0.0
2017-Jul-21 08:20N 57°38' E 010°41'0 0.0
2017-Jul-21 07:08N 57°38' E 010°41'0 0.1
2017-Jul-21 06:59N 57°38' E 010°41'0 0.0
2017-Jul-21 06:23N 57°38' E 010°41'0 0.0
2017-Jul-21 05:14N 57°38' E 010°41'0 0.0
2017-Jul-21 04:38N 57°38' E 010°41'0 0.0
2017-Jul-21 04:14N 57°38' E 010°41'0 0.0
2017-Jul-21 03:59N 57°38' E 010°41'0 0.0
2017-Jul-21 03:17N 57°38' E 010°41'0 0.0
2017-Jul-21 02:41N 57°38' E 010°41'0 0.0
2017-Jul-21 02:26N 57°38' E 010°41'0 0.1
2017-Jul-21 01:50N 57°38' E 010°41'0 0.1
2017-Jul-21 01:23N 57°38' E 010°41'0 0.0
2017-Jul-21 00:59N 57°38' E 010°41'0 0.0
2017-Jul-21 00:20N 57°38' E 010°41'0 0.0
2017-Jul-20 23:47N 57°38' E 010°41'0 0.0
2017-Jul-20 23:20N 57°38' E 010°41'0 0.0
2017-Jul-20 22:08N 57°38' E 010°41'0 0.0
2017-Jul-20 21:56N 57°38' E 010°41'0 0.0
2017-Jul-20 21:23N 57°38' E 010°41'0 0.0
2017-Jul-20 20:59N 57°38' E 010°41'0 0.0
2017-Jul-20 20:29N 57°38' E 010°41'0 0.0
2017-Jul-20 19:50N 57°38' E 010°41'0 0.0
2017-Jul-20 19:26N 57°38' E 010°41'0 0.0
2017-Jul-20 18:59N 57°38' E 010°41'0 0.0
2017-Jul-20 18:23N 57°38' E 010°41'0 0.0
2017-Jul-20 17:59N 57°38' E 010°41'0 0.0
2017-Jul-20 16:14N 57°38' E 010°41'0 0.0
2017-Jul-20 15:08N 57°38' E 010°41'0 0.0
2017-Jul-20 14:53N 57°38' E 010°41'0 0.0
2017-Jul-20 13:59N 57°38' E 010°41'0 0.0
2017-Jul-20 13:20N 57°38' E 010°41'0 0.0
2017-Jul-20 12:50N 57°38' E 010°41'0 0.0
2017-Jul-20 12:17N 57°38' E 010°41'0 0.0
2017-Jul-20 11:38N 57°38' E 010°41'0 0.0
2017-Jul-20 11:08N 57°38' E 010°41'0 0.0
2017-Jul-20 10:08N 57°38' E 010°41'0 0.0
2017-Jul-20 09:56N 57°38' E 010°41'0 0.0
2017-Jul-20 09:29N 57°38' E 010°41'0 0.0
2017-Jul-20 08:53N 57°38' E 010°41'0 0.0
2017-Jul-20 08:29N 57°38' E 010°41'0 0.0
2017-Jul-20 07:44N 57°38' E 010°41'0 0.0
2017-Jul-20 07:17N 57°38' E 010°41'0 0.1
2017-Jul-20 06:56N 57°38' E 010°41'0 0.0
2017-Jul-20 06:29N 57°38' E 010°41'0 0.0
2017-Jul-20 05:59N 57°38' E 010°41'0 0.0
2017-Jul-20 05:29N 57°38' E 010°41'0 0.0
2017-Jul-20 04:59N 57°38' E 010°41'0 0.0
2017-Jul-20 04:29N 57°38' E 010°41'0 0.0
2017-Jul-20 03:59N 57°38' E 010°41'0 0.0
2017-Jul-20 03:29N 57°38' E 010°41'0 0.0
2017-Jul-20 02:59N 57°38' E 010°41'0 0.0
2017-Jul-20 02:08N 57°38' E 010°41'0 0.0
2017-Jul-20 01:47N 57°38' E 010°41'0 0.0
2017-Jul-20 01:23N 57°38' E 010°41'0 0.0
2017-Jul-20 00:56N 57°38' E 010°41'0 0.0
2017-Jul-19 22:59N 57°38' E 010°41'0 0.0
2017-Jul-19 22:29N 57°38' E 010°41'0 0.0
2017-Jul-19 21:59N 57°38' E 010°41'0 0.0
2017-Jul-19 21:08N 57°38' E 010°41'0 0.0
2017-Jul-19 20:59N 57°38' E 010°41'0 0.0
2017-Jul-19 20:11N 57°38' E 010°41'0 0.0
2017-Jul-19 19:59N 57°38' E 010°41'0 0.0
2017-Jul-19 19:17N 57°38' E 010°41'0 0.0
2017-Jul-19 18:59N 57°38' E 010°41'0 0.1
2017-Jul-19 18:30N 57°38' E 010°41'0 0.6
2017-Jul-19 18:00N 57°38' E 010°41'3 6.7
2017-Jul-19 17:30N 57°40' E 010°46'612.1
2017-Jul-19 17:00N 57°46' E 010°46'511.1
2017-Jul-19 16:30N 57°49' E 010°37'713.1
2017-Jul-19 16:00N 57°49' E 010°25'612.9
2017-Jul-19 15:30N 57°48' E 010°13'712.7
2017-Jul-19 14:58N 57°48' E 009°60'612.4
2017-Jul-19 14:30N 57°47' E 009°49'612.5
2017-Jul-19 13:59N 57°47' E 009°37'612.4
2017-Jul-19 13:30N 57°46' E 009°26'612.7
2017-Jul-19 13:00N 57°45' E 009°14'712.9
2017-Jul-19 12:29N 57°45' E 009°02'613.1
2017-Jul-19 12:00N 57°44' E 008°50'713.1
2017-Jul-19 11:30N 57°44' E 008°37'713.0
2017-Jul-19 10:59N 57°43' E 008°25'713.0
2017-Jul-19 10:29N 57°42' E 008°13'612.9
2017-Jul-19 09:59N 57°41' E 008°01'612.6
2017-Jul-19 09:29N 57°41' E 007°49'612.5
2017-Jul-19 09:00N 57°42' E 007°38'612.5
2017-Jul-19 08:30N 57°42' E 007°26'612.2
2017-Jul-19 08:00N 57°43' E 007°15'612.1
2017-Jul-19 07:30N 57°43' E 007°04'612.2
2017-Jul-19 07:00N 57°43' E 006°52'713.0
2017-Jul-19 06:30N 57°43' E 006°40'612.7
2017-Jul-19 06:00N 57°45' E 006°29'611.6
2017-Jul-19 05:30N 57°49' E 006°21'612.1
2017-Jul-19 05:00N 57°53' E 006°12'611.9
2017-Jul-19 04:30N 57°57' E 006°03'612.0
2017-Jul-19 04:00N 58°01' E 005°55'611.5
2017-Jul-19 03:30N 58°04' E 005°47'611.0
2017-Jul-19 02:56N 58°08' E 005°37'511.9
2017-Jul-19 02:30N 58°12' E 005°30'612.0
2017-Jul-19 02:00N 58°15' E 005°21'612.1
2017-Jul-19 01:29N 58°20' E 005°13'612.2
2017-Jul-19 01:00N 58°24' E 005°06'612.3
2017-Jul-19 00:30N 58°29' E 004°58'612.4
2017-Jul-19 00:00N 58°33' E 004°50'713.0
2017-Jul-18 23:30N 58°38' E 004°41'612.8
2017-Jul-18 23:00N 58°43' E 004°33'712.4
2017-Jul-18 22:25N 58°48' E 004°23'  
Track history (hours):
 
Tides and Currents Weather Stations Pressure Air Temp Water Temp Dewpoint Dewpoint Depression Visibility Wind Speed Wind Dir Waves Ship Positions

Edith Kirk

Last reported at 2017-Jul-28 13:00 UTC. Time now 2017-Jul-28 13:01 UTC.
Position N 51°27' E 002°37'.

Length 183 m; draft 7.2 m.

Type: Ship. MMSI: 235081745.

Date/timePositionNaut miles runAvg speedWind from/ knotsBaromVisibWave heightAir tempDewpointWater temp
2017-Jul-28 13:00N 51°27' E 002°37'0 0.2
2017-Jul-28 12:30N 51°27' E 002°37'0 0.1
2017-Jul-28 12:00N 51°26' E 002°36'0 0.0
2017-Jul-28 11:30N 51°26' E 002°36'0 0.1
2017-Jul-28 10:57N 51°26' E 002°37'0 0.0
2017-Jul-28 10:30N 51°26' E 002°37'0 0.2
2017-Jul-28 10:00N 51°27' E 002°37'0 0.1
2017-Jul-28 09:30N 51°27' E 002°37'0 0.1
2017-Jul-28 09:00N 51°27' E 002°37'0 0.1
2017-Jul-28 08:30N 51°27' E 002°37'0 0.0
2017-Jul-28 08:00N 51°27' E 002°37'0 0.0
2017-Jul-28 07:30N 51°27' E 002°37'0 0.0
2017-Jul-28 07:00N 51°27' E 002°37'0 0.0
2017-Jul-28 06:30N 51°27' E 002°37'0 0.0
2017-Jul-28 06:00N 51°27' E 002°37'0 0.0
2017-Jul-28 05:30N 51°27' E 002°37'0 0.0
2017-Jul-28 05:00N 51°27' E 002°37'0 0.0
2017-Jul-28 04:30N 51°27' E 002°37'0 0.0
2017-Jul-28 03:57N 51°27' E 002°37'0 0.0
2017-Jul-28 03:30N 51°27' E 002°37'0 0.0
2017-Jul-28 03:00N 51°27' E 002°37'0 0.0
2017-Jul-28 02:30N 51°27' E 002°37'0 0.1
2017-Jul-28 02:00N 51°27' E 002°37'0 0.0
2017-Jul-28 01:30N 51°27' E 002°37'0 0.0
2017-Jul-28 00:54N 51°27' E 002°37'0 0.1
2017-Jul-28 00:30N 51°27' E 002°37'0 0.1
2017-Jul-28 00:00N 51°26' E 002°37'0 0.0
2017-Jul-27 23:30N 51°26' E 002°37'0 0.0
2017-Jul-27 23:00N 51°27' E 002°37'0 0.0
2017-Jul-27 22:30N 51°27' E 002°37'0 0.1
2017-Jul-27 22:00N 51°26' E 002°37'0 0.1
2017-Jul-27 21:30N 51°27' E 002°37'0 0.1
2017-Jul-27 21:00N 51°27' E 002°37'0 0.0
2017-Jul-27 20:30N 51°27' E 002°37'0 0.0
2017-Jul-27 20:00N 51°27' E 002°37'0 0.0
2017-Jul-27 19:30N 51°27' E 002°37'0 0.0
2017-Jul-27 19:00N 51°27' E 002°37'0 0.0
2017-Jul-27 18:30N 51°27' E 002°37'0 0.0
2017-Jul-27 18:00N 51°27' E 002°37'0 0.3
2017-Jul-27 17:31N 51°27' E 002°37'1 1.5
2017-Jul-27 17:01N 51°27' E 002°35'3 6.2
2017-Jul-27 16:31N 51°24' E 002°33'5 9.0
2017-Jul-27 16:01N 51°21' E 002°27'611.0
2017-Jul-27 15:31N 51°19' E 002°19'612.2
2017-Jul-27 15:00N 51°19' E 002°09'9 9.4
2017-Jul-27 14:01N 51°25' E 001°57'510.1
2017-Jul-27 13:31N 51°29' E 002°01'5 9.5
2017-Jul-27 13:01N 51°33' E 002°06'510.1
2017-Jul-27 12:30N 51°36' E 002°12'9 9.9
2017-Jul-27 11:35N 51°43' E 002°22'11711.9
2017-Jul-27 01:45N 53°31' E 003°34'312.0
2017-Jul-27 01:30N 53°34' E 003°36'137 8.5
2017-Jul-26 09:24N 55°25' E 005°55'3 6.6
2017-Jul-26 08:57N 55°27' E 005°57'1 1.3
2017-Jul-26 08:11N 55°28' E 005°58'1 3.0
2017-Jul-26 07:42N 55°29' E 005°59'1 2.2
2017-Jul-26 07:25N 55°30' E 005°60'2 4.2
2017-Jul-26 06:59N 55°31' E 006°01'1 2.9
2017-Jul-26 06:29N 55°33' E 006°03'5 9.7
2017-Jul-26 05:59N 55°37' E 006°06'612.3
2017-Jul-26 05:30N 55°42' E 006°11'612.3
2017-Jul-26 05:00N 55°48' E 006°15'612.2
2017-Jul-26 04:29N 55°54' E 006°20'612.2
2017-Jul-26 03:59N 55°59' E 006°25'1012.3
2017-Jul-26 03:11N 56°08' E 006°32'12210.9
2017-Jul-25 15:58N 57°40' E 008°58'1511.3
2017-Jul-25 14:40N 57°43' E 009°25'811.8
2017-Jul-25 14:00N 57°44' E 009°40'611.9
2017-Jul-25 13:29N 57°45' E 009°51'611.8
2017-Jul-25 13:00N 57°46' E 010°02'611.8
2017-Jul-25 12:30N 57°47' E 010°13'611.9
2017-Jul-25 11:59N 57°48' E 010°24'611.8
2017-Jul-25 11:28N 57°49' E 010°35'511.2
2017-Jul-25 11:00N 57°49' E 010°45'611.4
2017-Jul-25 10:30N 57°44' E 010°49'711.7
2017-Jul-25 09:57N 57°38' E 010°42'1 0.7
2017-Jul-25 08:50N 57°38' E 010°41'0 0.0
2017-Jul-25 07:56N 57°38' E 010°41'0 0.0
2017-Jul-25 07:29N 57°38' E 010°41'0 0.0
2017-Jul-25 06:08N 57°38' E 010°41'0 0.0
2017-Jul-25 04:26N 57°38' E 010°41'0 0.0
2017-Jul-25 03:44N 57°38' E 010°41'0 0.0
2017-Jul-25 03:23N 57°38' E 010°41'0 0.0
2017-Jul-25 02:32N 57°38' E 010°41'0 0.0
2017-Jul-25 02:17N 57°38' E 010°41'0 0.0
2017-Jul-25 01:47N 57°38' E 010°41'0 0.0
2017-Jul-25 01:17N 57°38' E 010°41'0 0.0
2017-Jul-25 00:59N 57°38' E 010°41'0 0.0
2017-Jul-25 00:20N 57°38' E 010°41'0 0.0
2017-Jul-24 23:50N 57°38' E 010°41'0 0.0
2017-Jul-24 23:23N 57°38' E 010°41'0 0.0
2017-Jul-24 21:05N 57°38' E 010°41'0 0.1
2017-Jul-24 20:56N 57°38' E 010°41'0 0.1
2017-Jul-24 20:08N 57°38' E 010°41'0 0.0
2017-Jul-24 19:38N 57°38' E 010°41'0 0.0
2017-Jul-24 17:26N 57°38' E 010°41'0 0.0
2017-Jul-24 16:44N 57°38' E 010°41'0 0.1
2017-Jul-24 16:17N 57°38' E 010°41'0 0.0
2017-Jul-24 12:47N 57°38' E 010°41'0 0.0
2017-Jul-24 12:29N 57°38' E 010°41'0 0.0
2017-Jul-24 11:59N 57°38' E 010°41'0 0.0
2017-Jul-24 10:47N 57°38' E 010°41'0 0.0
2017-Jul-24 10:17N 57°38' E 010°41'0 0.0
2017-Jul-24 09:29N 57°38' E 010°41'0 0.0
2017-Jul-24 08:59N 57°38' E 010°41'0 0.0
2017-Jul-24 08:23N 57°38' E 010°41'0 0.0
2017-Jul-24 07:32N 57°38' E 010°41'0 0.0
2017-Jul-24 07:08N 57°38' E 010°41'0 0.0
2017-Jul-24 06:35N 57°38' E 010°41'0 0.0
2017-Jul-24 05:50N 57°38' E 010°41'0 0.0
2017-Jul-24 05:29N 57°38' E 010°41'0 0.0
2017-Jul-24 04:53N 57°38' E 010°41'0 0.0
2017-Jul-24 04:29N 57°38' E 010°41'0 0.0
2017-Jul-24 03:56N 57°38' E 010°41'0 0.0
2017-Jul-24 03:23N 57°38' E 010°41'0 0.0
2017-Jul-24 02:53N 57°38' E 010°41'0 0.0
2017-Jul-24 02:20N 57°38' E 010°41'0 0.0
2017-Jul-24 01:50N 57°38' E 010°41'0 0.0
2017-Jul-24 01:26N 57°38' E 010°41'0 0.0
2017-Jul-24 00:50N 57°38' E 010°41'0 0.0
2017-Jul-24 00:26N 57°38' E 010°41'0 0.0
2017-Jul-23 23:50N 57°38' E 010°41'0 0.0
2017-Jul-23 23:11N 57°38' E 010°41'0 0.0
2017-Jul-23 22:56N 57°38' E 010°41'0 0.0
2017-Jul-23 22:29N 57°38' E 010°41'0 0.0
2017-Jul-23 21:56N 57°38' E 010°41'0 0.0
2017-Jul-23 21:14N 57°38' E 010°41'0 0.0
2017-Jul-23 20:59N 57°38' E 010°41'0 0.0
2017-Jul-23 20:29N 57°38' E 010°41'0 0.0
2017-Jul-23 19:59N 57°38' E 010°41'0 0.0
2017-Jul-23 19:29N 57°38' E 010°41'0 0.0
2017-Jul-23 18:59N 57°38' E 010°41'0 0.0
2017-Jul-23 18:29N 57°38' E 010°41'0 0.0
2017-Jul-23 17:59N 57°38' E 010°41'0 0.0
2017-Jul-23 17:29N 57°38' E 010°41'0 0.0
2017-Jul-23 16:50N 57°38' E 010°41'0 0.0
2017-Jul-23 16:29N 57°38' E 010°41'0 0.0
2017-Jul-23 15:56N 57°38' E 010°41'0 0.0
2017-Jul-23 15:02N 57°38' E 010°41'0 0.0
2017-Jul-23 14:59N 57°38' E 010°41'0 0.0
2017-Jul-23 14:26N 57°38' E 010°41'0 0.0
2017-Jul-23 13:47N 57°38' E 010°41'0 0.0
2017-Jul-23 13:29N 57°38' E 010°41'0 0.0
2017-Jul-23 12:23N 57°38' E 010°41'0 0.0
2017-Jul-23 11:26N 57°38' E 010°41'0 0.0
2017-Jul-23 10:47N 57°38' E 010°41'0 0.0
2017-Jul-23 09:26N 57°38' E 010°41'0 0.0
2017-Jul-23 08:56N 57°38' E 010°41'0 0.0
2017-Jul-23 08:14N 57°38' E 010°41'0 0.0
2017-Jul-23 07:53N 57°38' E 010°41'0 0.0
2017-Jul-23 07:29N 57°38' E 010°41'0 0.0
2017-Jul-23 06:50N 57°38' E 010°41'0 0.0
2017-Jul-23 06:29N 57°38' E 010°41'0 0.0
2017-Jul-23 05:59N 57°38' E 010°41'0 0.0
2017-Jul-23 05:29N 57°38' E 010°41'0 0.0
2017-Jul-23 04:56N 57°38' E 010°41'0 0.0
2017-Jul-23 04:29N 57°38' E 010°41'0 0.0
2017-Jul-23 03:59N 57°38' E 010°41'0 0.0
2017-Jul-23 03:29N 57°38' E 010°41'0 0.0
2017-Jul-23 02:59N 57°38' E 010°41'0 0.0
2017-Jul-23 02:29N 57°38' E 010°41'0 0.0
2017-Jul-23 01:59N 57°38' E 010°41'0 0.0
2017-Jul-23 01:23N 57°38' E 010°41'0 0.0
2017-Jul-23 00:56N 57°38' E 010°41'0 0.0
2017-Jul-23 00:26N 57°38' E 010°41'0 0.0
2017-Jul-22 23:59N 57°38' E 010°41'0 0.0
2017-Jul-22 23:26N 57°38' E 010°41'0 0.0
2017-Jul-22 19:56N 57°38' E 010°41'0 0.0
2017-Jul-22 19:17N 57°38' E 010°41'0 0.0
2017-Jul-22 18:53N 57°38' E 010°41'0 0.0
2017-Jul-22 17:56N 57°38' E 010°41'0 0.1
2017-Jul-22 17:26N 57°38' E 010°41'0 0.1
2017-Jul-22 16:56N 57°38' E 010°41'0 0.1
2017-Jul-22 16:26N 57°38' E 010°41'0 0.0
2017-Jul-22 15:59N 57°38' E 010°41'0 0.0
2017-Jul-22 13:56N 57°38' E 010°41'0 0.0
2017-Jul-22 13:26N 57°38' E 010°41'0 0.0
2017-Jul-22 12:59N 57°38' E 010°41'0 0.0
2017-Jul-22 12:20N 57°38' E 010°41'0 0.0
2017-Jul-22 11:59N 57°38' E 010°41'0 0.0
2017-Jul-22 11:23N 57°38' E 010°41'0 0.0
2017-Jul-22 10:47N 57°38' E 010°41'0 0.0
2017-Jul-22 09:35N 57°38' E 010°41'0 0.0
2017-Jul-22 09:14N 57°38' E 010°41'0 0.0
2017-Jul-22 08:50N 57°38' E 010°41'0 0.0
2017-Jul-22 08:23N 57°38' E 010°41'0 0.0
2017-Jul-22 07:47N 57°38' E 010°41'0 0.0
2017-Jul-22 07:29N 57°38' E 010°41'0 0.0
2017-Jul-22 06:59N 57°38' E 010°41'0 0.0
2017-Jul-22 06:26N 57°38' E 010°41'0 0.0
2017-Jul-22 05:44N 57°38' E 010°41'0 0.0
2017-Jul-22 05:26N 57°38' E 010°41'0 0.0
2017-Jul-22 04:59N 57°38' E 010°41'0 0.0
2017-Jul-22 04:26N 57°38' E 010°41'0 0.0
2017-Jul-22 03:50N 57°38' E 010°41'0 0.0
2017-Jul-22 03:29N 57°38' E 010°41'0 0.0
2017-Jul-22 02:53N 57°38' E 010°41'0 0.0
2017-Jul-22 02:26N 57°38' E 010°41'0 0.0
2017-Jul-22 01:59N 57°38' E 010°41'0 0.0
2017-Jul-22 01:26N 57°38' E 010°41'0 0.0
2017-Jul-22 00:59N 57°38' E 010°41'0 0.0
2017-Jul-22 00:23N 57°38' E 010°41'0 0.0
2017-Jul-21 23:56N 57°38' E 010°41'0 0.0
2017-Jul-21 22:50N 57°38' E 010°41'0 0.0
2017-Jul-21 22:17N 57°38' E 010°41'0 0.0
2017-Jul-21 21:32N 57°38' E 010°41'0 0.0
2017-Jul-21 21:29N 57°38' E 010°41'0 0.0
2017-Jul-21 19:56N 57°38' E 010°41'0 0.0
2017-Jul-21 19:23N 57°38' E 010°41'0 0.0
2017-Jul-21 18:59N 57°38' E 010°41'0 0.0
2017-Jul-21 18:29N 57°38' E 010°41'0 0.0
2017-Jul-21 17:50N 57°38' E 010°41'0 0.0
2017-Jul-21 17:23N 57°38' E 010°41'0 0.0
2017-Jul-21 16:53N 57°38' E 010°41'0 0.0
2017-Jul-21 16:23N 57°38' E 010°41'0 0.0
2017-Jul-21 15:59N 57°38' E 010°41'0 0.0
2017-Jul-21 15:23N 57°38' E 010°41'0 0.0
2017-Jul-21 14:59N 57°38' E 010°41'0 0.0
2017-Jul-21 14:11N 57°38' E 010°41'0 0.0
2017-Jul-21 13:53N 57°38' E 010°41'0 0.0
2017-Jul-21 13:20N 57°38' E 010°41'0 0.0
2017-Jul-21 12:56N 57°38' E 010°41'0 0.0
2017-Jul-21 12:26N 57°38' E 010°41'0 0.0
2017-Jul-21 11:59N 57°38' E 010°41'0 0.0
2017-Jul-21 11:17N 57°38' E 010°41'0 0.1
2017-Jul-21 10:56N 57°38' E 010°41'0 0.1
2017-Jul-21 10:23N 57°38' E 010°41'0 0.1
2017-Jul-21 09:59N 57°38' E 010°41'0 0.0
2017-Jul-21 09:26N 57°38' E 010°41'0 0.0
2017-Jul-21 08:50N 57°38' E 010°41'0 0.0
2017-Jul-21 08:20N 57°38' E 010°41'0 0.0
2017-Jul-21 07:08N 57°38' E 010°41'0 0.1
2017-Jul-21 06:59N 57°38' E 010°41'0 0.0
2017-Jul-21 06:23N 57°38' E 010°41'0 0.0
2017-Jul-21 05:14N 57°38' E 010°41'0 0.0
2017-Jul-21 04:38N 57°38' E 010°41'0 0.0
2017-Jul-21 04:14N 57°38' E 010°41'0 0.0
2017-Jul-21 03:59N 57°38' E 010°41'0 0.0
2017-Jul-21 03:17N 57°38' E 010°41'0 0.0
2017-Jul-21 02:41N 57°38' E 010°41'0 0.0
2017-Jul-21 02:26N 57°38' E 010°41'0 0.1
2017-Jul-21 01:50N 57°38' E 010°41'0 0.1
2017-Jul-21 01:23N 57°38' E 010°41'0 0.0
2017-Jul-21 00:59N 57°38' E 010°41'0 0.0
2017-Jul-21 00:20N 57°38' E 010°41'0 0.0
2017-Jul-20 23:47N 57°38' E 010°41'0 0.0
2017-Jul-20 23:20N 57°38' E 010°41'0 0.0
2017-Jul-20 22:08N 57°38' E 010°41'0 0.0
2017-Jul-20 21:56N 57°38' E 010°41'0 0.0
2017-Jul-20 21:23N 57°38' E 010°41'0 0.0
2017-Jul-20 20:59N 57°38' E 010°41'0 0.0
2017-Jul-20 20:29N 57°38' E 010°41'0 0.0
2017-Jul-20 19:50N 57°38' E 010°41'0 0.0
2017-Jul-20 19:26N 57°38' E 010°41'0 0.0
2017-Jul-20 18:59N 57°38' E 010°41'0 0.0
2017-Jul-20 18:23N 57°38' E 010°41'0 0.0
2017-Jul-20 17:59N 57°38' E 010°41'0 0.0
2017-Jul-20 16:14N 57°38' E 010°41'0 0.0
2017-Jul-20 15:08N 57°38' E 010°41'0 0.0
2017-Jul-20 14:53N 57°38' E 010°41'0 0.0
2017-Jul-20 13:59N 57°38' E 010°41'0 0.0
2017-Jul-20 13:20N 57°38' E 010°41'0 0.0
2017-Jul-20 12:50N 57°38' E 010°41'0 0.0
2017-Jul-20 12:17N 57°38' E 010°41'0 0.0
2017-Jul-20 11:38N 57°38' E 010°41'0 0.0
2017-Jul-20 11:08N 57°38' E 010°41'0 0.0
2017-Jul-20 10:08N 57°38' E 010°41'0 0.0
2017-Jul-20 09:56N 57°38' E 010°41'0 0.0
2017-Jul-20 09:29N 57°38' E 010°41'0 0.0
2017-Jul-20 08:53N 57°38' E 010°41'0 0.0
2017-Jul-20 08:29N 57°38' E 010°41'0 0.0
2017-Jul-20 07:44N 57°38' E 010°41'0 0.0
2017-Jul-20 07:17N 57°38' E 010°41'0 0.1
2017-Jul-20 06:56N 57°38' E 010°41'0 0.0
2017-Jul-20 06:29N 57°38' E 010°41'0 0.0
2017-Jul-20 05:59N 57°38' E 010°41'0 0.0
2017-Jul-20 05:29N 57°38' E 010°41'0 0.0
2017-Jul-20 04:59N 57°38' E 010°41'0 0.0
2017-Jul-20 04:29N 57°38' E 010°41'0 0.0
2017-Jul-20 03:59N 57°38' E 010°41'0 0.0
2017-Jul-20 03:29N 57°38' E 010°41'0 0.0
2017-Jul-20 02:59N 57°38' E 010°41'0 0.0
2017-Jul-20 02:08N 57°38' E 010°41'0 0.0
2017-Jul-20 01:47N 57°38' E 010°41'0 0.0
2017-Jul-20 01:23N 57°38' E 010°41'0 0.0
2017-Jul-20 00:56N 57°38' E 010°41'0 0.0
2017-Jul-19 22:59N 57°38' E 010°41'0 0.0
2017-Jul-19 22:29N 57°38' E 010°41'0 0.0
2017-Jul-19 21:59N 57°38' E 010°41'0 0.0
2017-Jul-19 21:08N 57°38' E 010°41'0 0.0
2017-Jul-19 20:59N 57°38' E 010°41'0 0.0
2017-Jul-19 20:11N 57°38' E 010°41'0 0.0
2017-Jul-19 19:59N 57°38' E 010°41'0 0.0
2017-Jul-19 19:17N 57°38' E 010°41'0 0.0
2017-Jul-19 18:59N 57°38' E 010°41'0 0.1
2017-Jul-19 18:30N 57°38' E 010°41'0 0.6
2017-Jul-19 18:00N 57°38' E 010°41'3 6.7
2017-Jul-19 17:30N 57°40' E 010°46'612.1
2017-Jul-19 17:00N 57°46' E 010°46'511.1
2017-Jul-19 16:30N 57°49' E 010°37'713.1
2017-Jul-19 16:00N 57°49' E 010°25'612.9
2017-Jul-19 15:30N 57°48' E 010°13'712.7
2017-Jul-19 14:58N 57°48' E 009°60'612.4
2017-Jul-19 14:30N 57°47' E 009°49'612.5
2017-Jul-19 13:59N 57°47' E 009°37'612.4
2017-Jul-19 13:30N 57°46' E 009°26'612.7
2017-Jul-19 13:00N 57°45' E 009°14'712.9
2017-Jul-19 12:29N 57°45' E 009°02'613.1
2017-Jul-19 12:00N 57°44' E 008°50'713.1
2017-Jul-19 11:30N 57°44' E 008°37'713.0
2017-Jul-19 10:59N 57°43' E 008°25'713.0
2017-Jul-19 10:29N 57°42' E 008°13'612.9
2017-Jul-19 09:59N 57°41' E 008°01'612.6
2017-Jul-19 09:29N 57°41' E 007°49'612.5
2017-Jul-19 09:00N 57°42' E 007°38'612.5
2017-Jul-19 08:30N 57°42' E 007°26'612.2
2017-Jul-19 08:00N 57°43' E 007°15'612.1
2017-Jul-19 07:30N 57°43' E 007°04'612.2
2017-Jul-19 07:00N 57°43' E 006°52'713.0
2017-Jul-19 06:30N 57°43' E 006°40'612.7
2017-Jul-19 06:00N 57°45' E 006°29'611.6
2017-Jul-19 05:30N 57°49' E 006°21'612.1
2017-Jul-19 05:00N 57°53' E 006°12'611.9
2017-Jul-19 04:30N 57°57' E 006°03'612.0
2017-Jul-19 04:00N 58°01' E 005°55'611.5
2017-Jul-19 03:30N 58°04' E 005°47'611.0
2017-Jul-19 02:56N 58°08' E 005°37'511.9
2017-Jul-19 02:30N 58°12' E 005°30'612.0
2017-Jul-19 02:00N 58°15' E 005°21'612.1
2017-Jul-19 01:29N 58°20' E 005°13'612.2
2017-Jul-19 01:00N 58°24' E 005°06'612.3
2017-Jul-19 00:30N 58°29' E 004°58'612.4
2017-Jul-19 00:00N 58°33' E 004°50'713.0
2017-Jul-18 23:30N 58°38' E 004°41'612.8
2017-Jul-18 23:00N 58°43' E 004°33'712.4
2017-Jul-18 22:25N 58°48' E 004°23'  

Dump ship's entire track history